Terminal Aerodrome Forecast
Issued by NWS Bismarck, ND

Home | Current Version | Previous Version | Text Only | Print | Product List | Glossary Off
Versions: 1 2 3 4 5 6 7 8 9 10 11 12 13 14

000
FTUS43 KBIS 201500 AAB
TAFISN
TAF AMD
KISN 201516Z 2015/2112 29012G23KT P6SM SCT100
     FM201700 32022G32KT P6SM SKC
     FM210000 31009KT P6SM SKC=

USA.gov is the U.S. government's official web portal to all federal, state and local government web resources and services.